Time;durP1;ratioP1;P1;durP2;ratioP2;P2;SDS_P1;SDS_P2;PMS_P1;PMS_P2;Temp;Humidity;BMP_temperature;BMP_pressure;BME280_temperature;BME280_humidity;BME280_pressure;Samples;Min_cycle;Max_cycle;Signal;HPM_P1;HPM_P2
2024/04/07 00:00:53;;;;;;;3.47;1.75;;;;;;;12.07;93.13;93033.47;2097839;28;20081;-81
2024/04/07 00:01:54;;;;;;;2.03;1.15;;;;;;;12.16;88.87;93022.91;2089652;28;20044;-80
2024/04/07 00:02:55;;;;;;;4.45;1.20;;;;;;;12.21;90.90;93033.06;2089558;28;20188;-84
2024/04/07 00:03:57;;;;;;;1.85;1.08;;;;;;;12.14;89.75;93022.56;2106135;28;20115;-82
2024/04/07 00:05:01;;;;;;;1.58;1.10;;;;;;;12.04;90.86;93028.97;2106105;28;20024;-81
2024/04/07 00:06:02;;;;;;;1.95;1.00;;;;;;;12.05;91.85;93035.84;2089943;28;20074;-81
2024/04/07 00:07:04;;;;;;;2.00;1.00;;;;;;;12.05;92.03;93031.22;2098022;28;20028;-83
2024/04/07 00:08:05;;;;;;;5.07;1.00;;;;;;;12.17;91.46;93024.38;2106211;28;20073;-82
2024/04/07 00:09:06;;;;;;;5.68;1.20;;;;;;;12.05;90.54;93030.47;2097929;28;20029;-81
2024/04/07 00:10:07;;;;;;;2.15;1.42;;;;;;;12.05;91.52;93028.53;2097790;28;20047;-82
2024/04/07 00:11:07;;;;;;;2.25;1.05;;;;;;;12.09;91.89;93023.84;2106806;28;20028;-81
2024/04/07 00:12:09;;;;;;;1.40;0.95;;;;;;;12.15;89.22;93025.97;2106392;28;20034;-81
2024/04/07 00:13:09;;;;;;;1.60;0.90;;;;;;;12.13;91.13;93025.66;2089752;28;20025;-81
2024/04/07 00:14:10;;;;;;;1.02;0.90;;;;;;;12.04;91.72;93024.38;2097428;28;20501;-82
2024/04/07 00:15:11;;;;;;;1.00;0.90;;;;;;;12.12;91.13;93024.19;2097294;28;20051;-82
2024/04/07 00:16:12;;;;;;;2.30;1.10;;;;;;;12.09;90.17;93026.50;2103851;28;20396;-80
2024/04/07 00:17:13;;;;;;;5.25;1.10;;;;;;;12.07;90.58;93028.88;2101684;28;20044;-81
2024/04/07 00:18:14;;;;;;;2.35;1.05;;;;;;;12.07;91.06;93017.38;2094615;28;20032;-82
2024/04/07 00:19:15;;;;;;;2.97;1.10;;;;;;;12.05;91.78;93015.16;2095632;28;20071;-81
2024/04/07 00:20:16;;;;;;;2.50;0.90;;;;;;;12.07;91.34;93022.75;2101378;28;20516;-83
2024/04/07 00:21:17;;;;;;;2.65;1.00;;;;;;;12.04;93.55;93024.38;2095978;28;20500;-81
2024/04/07 00:22:18;;;;;;;2.40;1.10;;;;;;;12.03;92.40;93022.88;2104130;28;20031;-83
2024/04/07 00:23:21;;;;;;;2.83;1.17;;;;;;;11.95;93.27;93024.25;2097481;28;20609;-82
2024/04/07 00:24:23;;;;;;;2.97;1.38;;;;;;;12.03;92.42;93024.81;2098265;28;20105;-82
2024/04/07 00:25:24;;;;;;;4.03;0.82;;;;;;;11.95;94.47;93023.50;2105828;28;20026;-81
2024/04/07 00:26:26;;;;;;;1.75;0.90;;;;;;;11.83;96.84;93024.97;2089622;28;20032;-81
2024/04/07 00:27:26;;;;;;;3.63;1.02;;;;;;;11.83;97.02;93020.38;2093502;28;20044;-83
2024/04/07 00:28:28;;;;;;;2.83;1.13;;;;;;;11.80;97.05;93015.06;2108951;28;20677;-82
2024/04/07 00:29:30;;;;;;;1.35;0.93;;;;;;;11.89;95.77;93012.53;2113717;28;20039;-81
2024/04/07 00:30:31;;;;;;;2.13;1.15;;;;;;;11.87;93.87;93016.84;2114107;28;20024;-83
2024/04/07 00:31:32;;;;;;;4.18;1.08;;;;;;;11.92;93.98;93008.28;2114170;28;20022;-84
2024/04/07 00:32:33;;;;;;;3.20;0.93;;;;;;;11.92;92.12;93016.31;2113930;28;20019;-81
2024/04/07 00:33:34;;;;;;;3.95;0.90;;;;;;;11.64;93.27;93015.91;2115691;27;20016;-81
2024/04/07 00:34:50;;;;;;;1.23;0.93;;;;;;;11.80;92.08;93017.75;2113114;28;20047;-82
2024/04/07 00:36:00;;;;;;;3.83;0.90;;;;;;;11.78;93.35;93018.19;2112738;27;20022;-82
2024/04/07 00:37:02;;;;;;;1.75;0.98;;;;;;;11.83;89.25;93019.63;2114330;27;20023;-82
2024/04/07 00:38:03;;;;;;;1.88;1.17;;;;;;;11.90;93.20;93024.78;2114922;28;20028;-82
2024/04/07 00:39:04;;;;;;;2.20;0.88;;;;;;;11.97;87.33;93024.56;2114042;28;20038;-82
2024/04/07 00:40:06;;;;;;;2.22;1.00;;;;;;;11.88;88.49;93021.00;2105271;28;20066;-82
2024/04/07 00:41:07;;;;;;;2.13;0.88;;;;;;;12.00;83.33;93010.31;2114272;28;20165;-80
2024/04/07 00:42:08;;;;;;;1.85;0.90;;;;;;;12.00;84.67;93014.94;2113790;28;20027;-81
2024/04/07 00:43:09;;;;;;;1.65;0.80;;;;;;;12.05;86.43;93009.03;2114489;28;20051;-83
2024/04/07 00:44:10;;;;;;;1.13;0.98;;;;;;;12.12;79.78;93024.19;2099125;28;20382;-84
2024/04/07 00:45:12;;;;;;;1.92;0.90;;;;;;;12.04;82.64;93010.22;2111448;28;20024;-82
2024/04/07 00:46:13;;;;;;;2.45;1.00;;;;;;;12.03;83.93;93011.41;2105586;28;20059;-84
2024/04/07 00:47:15;;;;;;;2.83;1.05;;;;;;;11.98;80.73;93007.31;2108860;28;20055;-82
2024/04/07 00:48:25;;;;;;;1.42;1.00;;;;;;;12.00;80.55;93010.31;2105274;28;20039;-81
2024/04/07 00:49:26;;;;;;;;;;;;;;;12.01;81.06;93011.06;2100357;28;20025;-83
2024/04/07 00:50:27;;;;;;;1.25;0.95;;;;;;;12.02;81.07;93015.25;2105483;28;19908;-81
2024/04/07 00:51:28;;;;;;;2.65;0.85;;;;;;;12.00;82.22;93013.00;2105921;28;20502;-83
2024/04/07 00:52:30;;;;;;;2.80;0.93;;;;;;;11.98;82.27;93009.25;2113741;28;20098;-81
2024/04/07 00:53:31;;;;;;;1.45;0.90;;;;;;;11.96;80.05;93007.00;2114153;28;20530;-81
2024/04/07 00:54:33;;;;;;;2.83;0.93;;;;;;;11.94;81.49;93019.31;2105874;28;20566;-82
2024/04/07 00:55:35;;;;;;;3.03;1.05;;;;;;;12.01;79.38;93013.75;2105571;28;20024;-82
2024/04/07 00:56:36;;;;;;;1.88;0.80;;;;;;;12.06;81.51;93008.59;2105776;28;20547;-81
2024/04/07 00:57:38;;;;;;;1.77;1.10;;;;;;;12.12;81.92;93008.09;2105492;28;20028;-84
2024/04/07 00:58:39;;;;;;;2.10;0.80;;;;;;;12.14;80.67;93005.72;2105374;28;20047;-82
2024/04/07 00:59:41;;;;;;;2.40;1.00;;;;;;;12.15;80.83;93007.97;2114324;28;20098;-83
2024/04/07 01:00:43;;;;;;;1.55;0.80;;;;;;;12.14;82.81;93009.16;2113803;28;20439;-81
2024/04/07 01:01:44;;;;;;;0.88;0.82;;;;;;;12.07;82.05;93007.44;2097479;28;20032;-82
2024/04/07 01:02:45;;;;;;;3.50;1.00;;;;;;;12.07;83.19;93010.13;2096898;28;20032;-81
2024/04/07 01:03:46;;;;;;;2.67;1.02;;;;;;;12.09;83.51;93015.78;2105086;28;20020;-84
2024/04/07 01:04:47;;;;;;;3.65;1.10;;;;;;;11.98;84.03;93012.66;2105611;28;20050;-82
2024/04/07 01:05:49;;;;;;;1.27;0.68;;;;;;;11.91;83.37;93017.50;2113616;28;20062;-80
2024/04/07 01:06:50;;;;;;;2.45;0.85;;;;;;;12.05;84.40;93011.72;2101501;28;20020;-80
2024/04/07 01:07:51;;;;;;;1.25;0.80;;;;;;;11.95;84.01;93010.84;2095066;28;20029;-80
2024/04/07 01:08:53;;;;;;;2.92;0.90;;;;;;;11.90;83.81;93016.00;2097095;28;20025;-81
2024/04/07 01:09:56;;;;;;;2.08;0.80;;;;;;;12.04;80.82;93005.63;2097648;28;20070;-83
2024/04/07 01:10:57;;;;;;;2.25;0.88;;;;;;;12.09;79.64;93013.13;2105298;28;20031;-80
2024/04/07 01:11:58;;;;;;;0.80;0.70;;;;;;;12.00;82.65;93009.56;2105711;28;20408;-81
2024/04/07 01:12:58;;;;;;;1.02;0.80;;;;;;;11.90;84.77;93005.28;2096030;28;20040;-82
2024/04/07 01:14:00;;;;;;;3.78;1.00;;;;;;;12.04;85.65;93012.91;2090722;28;20048;-80
2024/04/07 01:15:00;;;;;;;1.17;0.88;;;;;;;11.98;85.58;93009.25;2097336;28;20761;-81
2024/04/07 01:16:02;;;;;;;2.15;0.80;;;;;;;12.01;85.95;93013.75;2102289;28;20028;-82
2024/04/07 01:17:07;;;;;;;3.30;0.90;;;;;;;12.00;85.57;93018.38;2114116;28;20027;-81
2024/04/07 01:18:09;;;;;;;1.60;0.80;;;;;;;12.01;86.08;93013.75;2108406;28;20085;-81
2024/04/07 01:19:10;;;;;;;2.28;0.80;;;;;;;12.03;85.49;93017.53;2113503;28;20329;-84
2024/04/07 01:20:13;;;;;;;5.93;1.05;;;;;;;12.08;86.68;93016.97;2114028;28;20032;-83
2024/04/07 01:21:14;;;;;;;1.20;0.80;;;;;;;12.04;86.24;93010.22;2113839;28;20098;-83
2024/04/07 01:22:15;;;;;;;1.00;0.80;;;;;;;12.00;88.64;93013.00;2104866;28;20096;-82
2024/04/07 01:23:17;;;;;;;2.60;0.82;;;;;;;11.95;89.89;93021.56;2089123;28;20029;-82
2024/04/07 01:24:18;;;;;;;2.15;0.82;;;;;;;11.94;88.27;93019.31;2104770;28;20036;-83
2024/04/07 01:25:20;;;;;;;3.17;1.00;;;;;;;12.06;88.75;93013.22;2100839;28;20023;-84
2024/04/07 01:26:22;;;;;;;1.42;1.00;;;;;;;11.98;90.08;93006.56;2105242;28;20029;-82
2024/04/07 01:27:23;;;;;;;1.77;0.80;;;;;;;12.01;88.67;93005.72;2113957;27;20132;-81
2024/04/07 01:28:25;;;;;;;3.28;0.90;;;;;;;11.99;86.53;93005.41;2118309;27;20076;-82
2024/04/07 01:29:26;;;;;;;3.13;1.00;;;;;;;12.03;86.73;93006.81;2109242;28;20630;-83
2024/04/07 01:30:28;;;;;;;1.92;0.90;;;;;;;12.03;87.35;93008.72;2113966;28;20023;-82
2024/04/07 01:31:29;;;;;;;0.60;0.60;;;;;;;12.03;88.31;93009.47;2105168;28;20343;-82
2024/04/07 01:32:30;;;;;;;2.67;0.80;;;;;;;11.93;91.88;93007.09;2104807;28;20028;-83
2024/04/07 01:33:31;;;;;;;2.78;0.93;;;;;;;11.95;88.86;93002.81;2105792;28;20119;-82
2024/04/07 01:34:33;;;;;;;2.85;0.70;;;;;;;12.07;86.45;92999.41;2105105;28;20039;-81
2024/04/07 01:35:34;;;;;;;2.53;0.80;;;;;;;12.18;82.08;93009.06;2105606;28;20015;-82
2024/04/07 01:36:35;;;;;;;3.70;0.95;;;;;;;12.15;82.94;93002.63;2096759;28;20114;-82
2024/04/07 01:37:38;;;;;;;0.90;0.80;;;;;;;12.19;83.04;93003.25;2096542;28;20115;-82
2024/04/07 01:38:39;;;;;;;1.80;0.90;;;;;;;12.31;82.23;93004.44;2097305;28;20024;-81
2024/04/07 01:39:40;;;;;;;1.48;0.98;;;;;;;12.41;81.21;93005.31;2110721;28;20046;-81
2024/04/07 01:40:41;;;;;;;4.72;0.90;;;;;;;12.36;81.77;93006.59;2105739;28;20492;-80
2024/04/07 01:41:42;;;;;;;1.00;0.70;;;;;;;12.37;82.73;92999.28;2097159;28;20068;-82
2024/04/07 01:42:43;;;;;;;1.48;0.90;;;;;;;12.46;80.49;93002.81;2108911;28;20551;-81
2024/04/07 01:43:44;;;;;;;0.75;0.73;;;;;;;12.57;80.38;93003.25;2113870;28;20019;-80
2024/04/07 01:44:45;;;;;;;1.38;0.85;;;;;;;12.57;80.26;92997.91;2111553;28;20035;-81
2024/04/07 01:45:46;;;;;;;0.77;0.75;;;;;;;12.56;80.80;92993.72;2105009;28;20028;-82
2024/04/07 01:46:47;;;;;;;2.05;1.20;;;;;;;12.57;80.81;92999.84;2097082;28;20457;-82
2024/04/07 01:47:48;;;;;;;2.70;0.90;;;;;;;12.56;80.39;93001.00;2104817;28;20142;-82
2024/04/07 01:48:49;;;;;;;1.50;1.00;;;;;;;12.39;82.64;92995.03;2112868;28;20101;-82
2024/04/07 01:49:50;;;;;;;1.83;0.90;;;;;;;12.49;81.80;92996.63;2113549;28;20015;-80
2024/04/07 01:50:52;;;;;;;1.95;0.82;;;;;;;12.44;82.70;92991.03;2104729;28;20178;-80
2024/04/07 01:51:56;;;;;;;2.30;0.85;;;;;;;12.35;82.49;92994.38;2105506;28;20031;-84
2024/04/07 01:52:57;;;;;;;2.47;0.88;;;;;;;12.27;83.18;92993.09;2108701;28;20513;-79
2024/04/07 01:53:58;;;;;;;3.08;0.77;;;;;;;12.46;82.28;92994.78;2114028;28;20035;-82
2024/04/07 01:54:59;;;;;;;3.30;0.90;;;;;;;12.49;82.33;92993.19;2104781;28;20028;-83
2024/04/07 01:56:00;;;;;;;1.83;0.82;;;;;;;12.55;82.28;92992.19;2113559;28;20019;-82
2024/04/07 01:57:01;;;;;;;2.53;1.10;;;;;;;12.60;81.12;92991.69;2113814;28;20020;-83
2024/04/07 01:58:02;;;;;;;3.15;1.08;;;;;;;12.65;82.22;92992.31;2104773;28;20686;-80
2024/04/07 01:59:03;;;;;;;1.50;1.10;;;;;;;12.69;81.82;92990.28;2097059;28;20109;-81
2024/04/07 02:00:07;;;;;;;1.52;0.80;;;;;;;12.69;82.38;92996.38;2105264;28;20042;-82
2024/04/07 02:01:08;;;;;;;1.02;0.93;;;;;;;12.63;81.74;92992.72;2104737;28;20028;-81
2024/04/07 02:02:09;;;;;;;1.63;1.02;;;;;;;12.62;84.50;93001.97;2105570;28;20515;-81
2024/04/07 02:03:10;;;;;;;0.85;0.80;;;;;;;12.71;83.05;92994.00;2104845;28;20039;-82
2024/04/07 02:04:11;;;;;;;1.35;0.82;;;;;;;12.78;84.30;92993.78;2105289;28;20027;-80
2024/04/07 02:05:11;;;;;;;2.10;1.10;;;;;;;12.90;82.29;92994.19;2113357;28;20066;-82
2024/04/07 02:06:12;;;;;;;3.55;1.02;;;;;;;12.79;81.50;92997.97;2104619;28;20448;-80
2024/04/07 02:07:14;;;;;;;1.85;1.02;;;;;;;12.78;85.03;92988.44;2097174;28;20032;-82
2024/04/07 02:08:15;;;;;;;2.58;1.10;;;;;;;12.81;82.90;93000.22;2104970;28;20449;-80
2024/04/07 02:09:16;;;;;;;1.55;0.90;;;;;;;12.85;82.50;93000.84;2104723;28;20108;-82
2024/04/07 02:10:17;;;;;;;1.25;1.02;;;;;;;12.82;82.98;92993.69;2096716;28;20160;-82
2024/04/07 02:11:18;;;;;;;1.00;0.77;;;;;;;12.88;83.00;92993.88;2107574;28;20034;-82
2024/04/07 02:12:19;;;;;;;2.13;0.85;;;;;;;12.92;82.59;93000.63;2113601;28;20015;-81
2024/04/07 02:13:20;;;;;;;1.20;1.10;;;;;;;12.88;83.48;92996.56;2104448;28;20540;-82
2024/04/07 02:14:21;;;;;;;3.15;0.90;;;;;;;12.86;82.60;92996.97;2096122;28;20028;-82
2024/04/07 02:15:22;;;;;;;2.03;0.90;;;;;;;12.90;82.31;92994.19;2113645;28;20024;-80
2024/04/07 02:16:24;;;;;;;2.83;1.10;;;;;;;13.06;82.15;92997.47;2109729;28;20109;-82
2024/04/07 02:17:25;;;;;;;1.42;0.98;;;;;;;12.89;83.86;92998.81;2113846;28;20434;-81
2024/04/07 02:18:26;;;;;;;1.55;1.10;;;;;;;12.98;83.01;92990.09;2095697;28;20048;-81
2024/04/07 02:19:28;;;;;;;1.60;0.98;;;;;;;12.92;85.94;92986.47;2103940;28;20024;-81
2024/04/07 02:20:29;;;;;;;1.27;1.05;;;;;;;13.07;83.22;92987.50;2106744;28;20031;-81
2024/04/07 02:21:30;;;;;;;4.07;0.82;;;;;;;13.08;83.02;92987.06;2113734;28;20102;-80
2024/04/07 02:22:31;;;;;;;1.52;0.85;;;;;;;12.99;84.17;92989.66;2105333;28;20036;-81
2024/04/07 02:23:32;;;;;;;1.63;1.13;;;;;;;12.98;84.66;92984.72;2096296;28;20032;-79
2024/04/07 02:24:33;;;;;;;2.90;1.10;;;;;;;13.07;84.89;92996.28;2101794;28;20048;-81
2024/04/07 02:25:33;;;;;;;1.23;0.80;;;;;;;13.07;86.19;92992.84;2105347;28;20028;-82
2024/04/07 02:27:39;;;;;;;;;;;;;;;11.98;97.82;92995.84;2148538;27;20117;-88
2024/04/07 02:28:40;;;;;;;1.63;0.95;;;;;;;12.04;97.08;93002.94;2130104;27;19911;-89
2024/04/07 02:29:41;;;;;;;1.58;0.80;;;;;;;12.23;95.95;93003.91;2112745;28;20036;-87
2024/04/07 02:30:42;;;;;;;2.08;1.20;;;;;;;12.15;99.03;93002.63;2121638;28;20027;-87
2024/04/07 02:31:49;;;;;;;3.80;0.90;;;;;;;12.13;99.39;93001.56;2122115;27;20158;-86
2024/04/07 02:32:50;;;;;;;2.42;1.00;;;;;;;12.08;100.00;92998.22;2116699;28;20015;-89
2024/04/07 02:33:51;;;;;;;2.45;1.00;;;;;;;12.10;100.00;93001.22;2112894;28;20024;-87
2024/04/07 02:34:52;;;;;;;1.52;1.00;;;;;;;12.06;100.00;92994.47;2104654;28;20046;-86
2024/04/07 02:35:59;;;;;;;1.83;0.90;;;;;;;11.96;100.00;92996.28;2104494;28;20028;-88
2024/04/07 02:37:00;;;;;;;1.05;0.90;;;;;;;11.92;100.00;92989.53;2106172;28;20024;-86
2024/04/07 02:38:01;;;;;;;2.65;1.00;;;;;;;11.91;100.00;92994.13;2109545;28;20025;-87
2024/04/07 02:39:02;;;;;;;1.92;0.95;;;;;;;11.79;100.00;92997.50;2096124;28;20436;-85
2024/04/07 02:40:08;;;;;;;3.90;1.13;;;;;;;11.81;100.00;92990.56;2096297;28;20151;-88
2024/04/07 02:41:09;;;;;;;3.50;0.95;;;;;;;11.84;100.00;92991.66;2099491;28;20445;-88
2024/04/07 02:42:10;;;;;;;3.42;1.27;;;;;;;11.98;100.00;92985.88;2104901;28;20127;-86
2024/04/07 02:43:11;;;;;;;1.00;0.90;;;;;;;11.94;100.00;92989.84;2104326;28;20338;-85
2024/04/07 02:44:12;;;;;;;2.78;1.05;;;;;;;11.87;100.00;92995.41;2104381;28;20047;-87
2024/04/07 02:48:05;;;;;;;1.05;0.73;;;;;;;12.05;100.00;92995.66;2129567;27;20042;-86
2024/04/07 02:49:06;;;;;;;3.67;1.15;;;;;;;11.96;100.00;92995.53;2123047;27;20068;-86
2024/04/07 02:50:07;;;;;;;2.38;1.00;;;;;;;11.90;100.00;92994.56;2129545;27;20019;-86
2024/04/07 02:51:08;;;;;;;0.90;0.85;;;;;;;11.90;100.00;92992.66;2129877;27;20455;-86
2024/04/07 02:52:11;;;;;;;2.08;0.80;;;;;;;11.90;100.00;92995.31;2113004;28;20030;-89
2024/04/07 02:53:12;;;;;;;2.67;0.95;;;;;;;11.84;100.00;92992.41;2113148;28;20024;-88
2024/04/07 02:54:13;;;;;;;4.75;1.00;;;;;;;11.92;100.00;92990.28;2104616;28;20066;-86
2024/04/07 02:55:14;;;;;;;1.17;1.00;;;;;;;11.97;100.00;92989.75;2104522;28;20381;-88
2024/04/07 02:56:17;;;;;;;1.45;0.95;;;;;;;11.93;100.00;92993.69;2105339;28;20135;-86
2024/04/07 02:57:19;;;;;;;0.93;0.63;;;;;;;11.91;100.00;92990.72;2104586;28;20024;-87
2024/04/07 02:58:20;;;;;;;1.40;0.98;;;;;;;11.83;100.00;92992.84;2104496;28;20031;-87
2024/04/07 02:59:21;;;;;;;1.00;0.90;;;;;;;11.80;100.00;93001.69;2113216;28;20028;-85
2024/04/07 03:00:22;;;;;;;1.40;0.80;;;;;;;11.71;100.00;93002.31;2112597;28;20020;-86
2024/04/07 03:01:23;;;;;;;1.25;0.82;;;;;;;11.76;100.00;92993.00;2121430;28;20423;-84
2024/04/07 03:02:24;;;;;;;1.42;0.98;;;;;;;11.88;100.00;92989.63;2129340;27;20102;-89
2024/04/07 03:03:25;;;;;;;1.52;0.90;;;;;;;11.82;100.00;92994.00;2112407;28;20016;-85
2024/04/07 03:04:26;;;;;;;1.30;0.90;;;;;;;11.75;100.00;92986.16;2120985;27;20026;-87
2024/04/07 03:05:27;;;;;;;1.63;0.80;;;;;;;11.79;100.00;92997.50;2121161;27;20046;-87
2024/04/07 03:06:29;;;;;;;1.20;0.98;;;;;;;11.78;100.00;92999.44;2121309;27;20023;-86
2024/04/07 03:07:30;;;;;;;2.03;0.93;;;;;;;11.78;100.00;92996.00;2112619;28;20055;-87
2024/04/07 03:08:31;;;;;;;1.15;0.80;;;;;;;11.84;100.00;92991.66;2121010;27;20019;-87
2024/04/07 03:09:31;;;;;;;1.50;0.80;;;;;;;11.64;100.00;93007.13;2112914;28;20377;-87
2024/04/07 03:10:32;;;;;;;0.85;0.85;;;;;;;11.85;100.00;93006.53;2112501;28;20476;-88
2024/04/07 03:11:33;;;;;;;0.80;0.80;;;;;;;11.83;100.00;93012.34;2104211;28;20024;-86
2024/04/07 03:12:34;;;;;;;1.00;0.70;;;;;;;11.75;100.00;93013.66;2096156;28;20056;-85
2024/04/07 03:13:36;;;;;;;0.82;0.80;;;;;;;11.58;100.00;93014.91;2107621;28;20155;-85
2024/04/07 03:14:36;;;;;;;2.17;0.98;;;;;;;11.46;100.00;93002.25;2103961;28;20044;-87
2024/04/07 03:15:37;;;;;;;2.17;0.90;;;;;;;11.55;100.00;93011.16;2110632;28;20050;-88
2024/04/07 03:16:38;;;;;;;1.85;0.90;;;;;;;11.47;100.00;93012.53;2103925;28;20473;-87
2024/04/07 03:17:42;;;;;;;1.23;0.90;;;;;;;11.40;100.00;93009.28;2112885;28;20043;-84
2024/04/07 03:18:43;;;;;;;3.08;0.90;;;;;;;11.49;100.00;93007.50;2112252;28;20024;-88
2024/04/07 03:19:45;;;;;;;1.17;0.70;;;;;;;11.61;100.00;93014.06;2095905;28;20397;-86
2024/04/07 03:20:46;;;;;;;1.20;0.90;;;;;;;11.42;100.00;93012.31;2103071;28;20024;-87
2024/04/07 03:21:47;;;;;;;1.00;0.85;;;;;;;11.36;100.00;93012.06;2112484;28;20119;-89
2024/04/07 03:22:48;;;;;;;1.25;0.80;;;;;;;11.17;100.00;93012.94;2112438;28;20027;-87
2024/04/07 03:23:49;;;;;;;1.52;0.75;;;;;;;11.18;100.00;93004.50;2108835;28;20020;-86
2024/04/07 03:24:50;;;;;;;1.77;0.90;;;;;;;11.23;100.00;93014.69;2120997;28;20023;-85
2024/04/07 03:25:51;;;;;;;0.98;0.80;;;;;;;11.24;100.00;93015.44;2128833;27;20479;-86
2024/04/07 03:26:52;;;;;;;2.83;0.80;;;;;;;11.30;100.00;93013.75;2111986;28;20020;-87
2024/04/07 03:27:53;;;;;;;2.05;0.90;;;;;;;11.28;100.00;93010.72;2121206;28;20452;-84
2024/04/07 03:28:54;;;;;;;3.28;1.02;;;;;;;11.25;100.00;93012.34;2126573;27;20034;-86
2024/04/07 03:29:55;;;;;;;0.98;0.88;;;;;;;11.20;100.00;93012.13;2112181;28;20026;-86
2024/04/07 03:30:56;;;;;;;1.15;0.82;;;;;;;11.12;100.00;93014.22;2104195;28;20091;-84
2024/04/07 03:31:57;;;;;;;2.00;1.05;;;;;;;11.10;100.00;93017.28;2103923;28;20111;-87
2024/04/07 03:32:58;;;;;;;1.25;0.95;;;;;;;11.01;100.00;93027.09;2112589;28;20074;-85
2024/04/07 03:33:59;;;;;;;1.55;1.10;;;;;;;10.90;100.00;93019.34;2110231;28;20028;-85
2024/04/07 03:35:00;;;;;;;1.30;0.80;;;;;;;10.81;100.00;93027.97;2105102;28;20036;-86
2024/04/07 03:36:04;;;;;;;1.52;0.93;;;;;;;10.58;100.00;93036.16;2104109;28;20529;-86
2024/04/07 03:37:06;;;;;;;3.50;0.88;;;;;;;10.67;100.00;93027.53;2105040;28;20374;-86
2024/04/07 03:38:08;;;;;;;2.63;0.93;;;;;;;10.67;100.00;93038.22;2113018;28;20016;-87
2024/04/07 03:39:09;;;;;;;1.85;0.98;;;;;;;10.79;100.00;93040.97;2122341;27;20031;-86
2024/04/07 03:40:10;;;;;;;1.63;0.80;;;;;;;10.65;100.00;93043.25;2106577;28;20028;-86
2024/04/07 03:41:22;;;;;;;1.08;0.80;;;;;;;10.68;100.00;93050.44;2090267;28;20454;-90
2024/04/07 03:42:23;;;;;;;2.55;1.20;;;;;;;10.52;100.00;93051.16;2094141;28;20029;-84
2024/04/07 03:43:24;;;;;;;1.42;0.90;;;;;;;10.64;100.00;93057.78;2099835;28;20103;-85
2024/04/07 03:44:26;;;;;;;2.80;0.80;;;;;;;10.50;100.00;93053.50;2106896;28;20829;-83
2024/04/07 03:45:27;;;;;;;1.20;0.88;;;;;;;10.60;100.00;93057.84;2115034;28;20413;-87
2024/04/07 03:46:28;;;;;;;2.15;1.10;;;;;;;10.68;100.00;93053.09;2098482;28;20032;-89
2024/04/07 03:47:29;;;;;;;2.53;0.90;;;;;;;10.62;100.00;93055.50;2105382;28;20127;-85
2024/04/07 03:48:30;;;;;;;1.83;0.88;;;;;;;10.61;100.00;93062.03;2098420;28;20074;-87
2024/04/07 03:49:31;;;;;;;1.35;0.93;;;;;;;10.66;100.00;93063.44;2098483;28;20366;-88
2024/04/07 03:50:32;;;;;;;0.85;0.77;;;;;;;10.59;100.00;93057.09;2094727;28;20100;-88
2024/04/07 03:51:33;;;;;;;2.40;0.82;;;;;;;10.65;100.00;93059.28;2098487;28;20403;-87
2024/04/07 03:52:34;;;;;;;1.55;0.90;;;;;;;10.57;100.00;93064.78;2105759;28;20012;-84
2024/04/07 03:53:35;;;;;;;2.28;1.00;;;;;;;10.52;100.00;93064.53;2108421;28;20087;-87
2024/04/07 03:54:36;;;;;;;2.22;0.85;;;;;;;10.53;100.00;93064.09;2105040;28;20028;-86
2024/04/07 03:55:37;;;;;;;1.70;1.00;;;;;;;10.54;100.00;93067.56;2095106;28;20055;-85
2024/04/07 03:56:38;;;;;;;4.75;1.10;;;;;;;10.47;100.00;93068.44;2102248;28;20330;-87
2024/04/07 03:57:39;;;;;;;1.83;1.08;;;;;;;10.46;100.00;93063.53;2093941;28;20472;-86
2024/04/07 03:58:40;;;;;;;2.13;1.13;;;;;;;10.65;100.00;93067.31;2096378;28;20122;-86
2024/04/07 03:59:41;;;;;;;2.10;0.80;;;;;;;10.44;100.00;93061.25;2104623;28;20031;-89
2024/04/07 04:00:42;;;;;;;2.08;0.90;;;;;;;10.52;100.00;93067.94;2105660;28;20028;-86
2024/04/07 04:01:50;;;;;;;1.88;0.88;;;;;;;10.47;100.00;93075.72;2100765;28;20017;-86
2024/04/07 04:02:51;;;;;;;1.58;0.73;;;;;;;10.30;100.00;93075.69;2100486;28;20094;-88
2024/04/07 04:03:52;;;;;;;3.33;0.90;;;;;;;10.45;100.00;93081.50;2098346;28;20020;-88
2024/04/07 04:05:00;;;;;;;0.88;0.68;;;;;;;10.58;100.00;93081.59;2106450;28;20044;-85
2024/04/07 04:06:03;;;;;;;1.92;0.90;;;;;;;10.60;100.00;93084.59;2107558;28;20024;-84
2024/04/07 04:07:04;;;;;;;1.33;0.88;;;;;;;10.43;100.00;93083.81;2105346;28;20016;-87
2024/04/07 04:08:05;;;;;;;3.20;0.90;;;;;;;10.42;100.00;93082.31;2098433;28;20119;-86
2024/04/07 04:09:06;;;;;;;5.07;1.17;;;;;;;10.47;100.00;93079.13;2114379;27;20027;-88
2024/04/07 04:10:08;;;;;;;2.38;1.00;;;;;;;10.40;100.00;93089.97;2114552;28;20035;-87
2024/04/07 04:11:11;;;;;;;2.60;1.00;;;;;;;10.64;100.00;93090.59;2115010;28;20028;-84
2024/04/07 04:12:12;;;;;;;1.23;1.00;;;;;;;10.59;100.00;93086.50;2098290;28;20408;-86
2024/04/07 04:13:13;;;;;;;2.75;0.93;;;;;;;10.67;100.00;93089.78;2106596;28;20032;-85
2024/04/07 04:14:16;;;;;;;1.23;0.90;;;;;;;10.65;100.00;93092.09;2106856;28;20430;-85
2024/04/07 04:15:17;;;;;;;2.17;0.88;;;;;;;10.68;100.00;93087.88;2097873;28;20038;-86
2024/04/07 04:16:18;;;;;;;1.73;0.93;;;;;;;10.82;100.00;93101.66;2106617;28;20039;-85
2024/04/07 04:17:19;;;;;;;2.70;1.13;;;;;;;10.76;100.00;93097.22;2104392;28;20031;-85
2024/04/07 04:18:20;;;;;;;2.15;1.50;;;;;;;10.84;100.00;93098.53;2098052;28;20016;-84
2024/04/07 04:19:21;;;;;;;4.15;0.98;;;;;;;10.81;100.00;93102.06;2098247;28;20054;-86
2024/04/07 04:20:22;;;;;;;4.13;0.90;;;;;;;10.65;100.00;93107.41;2097521;28;20055;-86
2024/04/07 04:21:23;;;;;;;1.98;0.90;;;;;;;10.71;100.00;93109.16;2114988;28;20023;-88
2024/04/07 04:22:24;;;;;;;2.45;0.88;;;;;;;10.75;100.00;93109.81;2112817;28;20039;-86
2024/04/07 04:23:25;;;;;;;1.08;0.95;;;;;;;10.85;100.00;93097.41;2098186;28;20063;-86
2024/04/07 04:24:25;;;;;;;2.15;1.10;;;;;;;10.85;100.00;93105.41;2099766;28;20040;-85
2024/04/07 04:25:26;;;;;;;2.78;1.00;;;;;;;11.11;100.00;93111.69;2106632;28;20048;-87
2024/04/07 04:26:28;;;;;;;4.28;1.10;;;;;;;11.01;100.00;93116.09;2098261;28;20151;-87
2024/04/07 04:27:29;;;;;;;2.58;1.10;;;;;;;11.07;100.00;93111.78;2098095;28;20036;-89
2024/04/07 04:28:30;;;;;;;5.40;1.00;;;;;;;10.85;100.00;93110.78;2106585;28;20447;-85
2024/04/07 04:29:32;;;;;;;1.33;1.10;;;;;;;10.93;100.00;93114.00;2097257;28;20043;-86
2024/04/07 04:30:33;;;;;;;3.75;1.15;;;;;;;10.83;100.00;93100.47;2106676;27;20023;-87
2024/04/07 04:31:34;;;;;;;2.97;0.90;;;;;;;11.00;100.00;93108.50;2106632;28;20020;-87
2024/04/07 04:32:35;;;;;;;3.47;0.90;;;;;;;10.96;100.00;93115.84;2106450;28;20020;-87
2024/04/07 04:33:37;;;;;;;2.05;1.30;;;;;;;11.06;100.00;93109.50;2098502;28;20021;-86
2024/04/07 04:34:38;;;;;;;3.20;0.75;;;;;;;11.16;100.00;93113.13;2106496;28;20024;-87
2024/04/07 04:35:39;;;;;;;3.00;1.10;;;;;;;11.02;100.00;93114.22;2110657;28;20100;-87
2024/04/07 04:36:40;;;;;;;2.63;0.90;;;;;;;11.27;100.00;93110.91;2098191;28;20024;-85
2024/04/07 04:37:41;;;;;;;3.38;1.00;;;;;;;11.50;100.00;93109.97;2098133;28;20500;-87
2024/04/07 04:38:42;;;;;;;4.95;0.90;;;;;;;11.61;100.00;93113.13;2098106;28;20028;-84
2024/04/07 04:39:43;;;;;;;2.78;1.13;;;;;;;11.73;100.00;93114.38;2106515;28;20024;-86
2024/04/07 04:40:56;;;;;;;5.72;1.13;;;;;;;11.96;86.01;93106.09;2089763;28;20021;-83
2024/04/07 04:41:57;;;;;;;8.75;2.45;;;;;;;13.52;59.27;93101.84;2093074;28;20079;-83
2024/04/07 04:42:58;;;;;;;7.50;1.20;;;;;;;13.91;60.93;93105.88;2097785;28;20028;-85
2024/04/07 04:43:59;;;;;;;6.43;1.30;;;;;;;14.88;53.45;93102.41;2098027;28;20084;-86
2024/04/07 04:45:00;;;;;;;7.43;1.50;;;;;;;15.21;52.81;93108.06;2097839;28;20056;-83
2024/04/07 04:46:06;;;;;;;9.80;1.27;;;;;;;15.03;58.06;93106.81;2092743;28;20028;-84
2024/04/07 04:47:14;;;;;;;8.68;2.08;;;;;;;15.28;51.50;93102.41;2107967;28;20103;-86
2024/04/07 04:48:15;;;;;;;7.90;1.50;;;;;;;15.27;54.10;93107.03;2106137;28;20027;-85
2024/04/07 04:49:17;;;;;;;8.10;1.15;;;;;;;15.40;50.83;93108.84;2109464;28;20026;-83
2024/04/07 04:50:18;;;;;;;9.70;1.50;;;;;;;15.45;51.82;93100.16;2105575;28;20047;-86
2024/04/07 04:51:19;;;;;;;5.38;1.20;;;;;;;16.10;46.73;93107.84;2097905;28;20052;-85
2024/04/07 04:52:20;;;;;;;7.20;1.52;;;;;;;16.62;45.97;93089.78;2097893;28;20032;-85